Time;durP1;ratioP1;P1;durP2;ratioP2;P2;SDS_P1;SDS_P2;PMS_P1;PMS_P2;Temp;Humidity;BMP_temperature;BMP_pressure;BME280_temperature;BME280_humidity;BME280_pressure;Samples;Min_cycle;Max_cycle;Signal;HPM_P1;HPM_P2
2024/03/27 00:00:07;;;;;;;4.82;3.33;;;;;;;;;;6238866;23;20423;-93
2024/03/27 00:02:32;;;;;;;5.28;3.60;;;;;;;;;;6238497;23;20084;-92
2024/03/27 00:04:58;;;;;;;5.60;3.05;;;;;;;;;;6214952;23;20086;-93
2024/03/27 00:07:23;;;;;;;9.23;3.38;;;;;;;;;;6238890;22;20012;-92
2024/03/27 00:09:48;;;;;;;4.70;3.05;;;;;;;;;;6239048;23;20475;-94
2024/03/27 00:12:13;;;;;;;6.63;2.92;;;;;;;;;;6238579;23;20004;-93
2024/03/27 00:14:39;;;;;;;8.35;2.53;;;;;;;;;;6238480;23;20047;-93
2024/03/27 00:17:04;;;;;;;5.80;2.47;;;;;;;;;;6215174;23;20084;-92
2024/03/27 00:19:29;;;;;;;8.10;2.75;;;;;;;;;;6215002;23;19993;-93
2024/03/27 00:21:55;;;;;;;7.70;2.67;;;;;;;;;;6214488;23;20445;-93
2024/03/27 00:24:21;;;;;;;7.18;2.58;;;;;;;;;;6238427;23;20431;-93
2024/03/27 00:26:46;;;;;;;6.88;2.03;;;;;;;;;;6213366;23;20015;-92
2024/03/27 00:29:11;;;;;;;6.00;2.45;;;;;;;;;;6214441;23;20416;-92
2024/03/27 00:31:36;;;;;;;5.40;2.30;;;;;;;;;;6215046;23;19997;-92
2024/03/27 00:34:01;;;;;;;8.67;2.30;;;;;;;;;;6215039;23;20008;-92
2024/03/27 00:36:27;;;;;;;6.00;2.50;;;;;;;;;;6212956;23;20237;-92
2024/03/27 00:38:53;;;;;;;8.27;2.92;;;;;;;;;;6214112;23;20207;-93
2024/03/27 00:41:18;;;;;;;5.25;2.70;;;;;;;;;;6214709;23;20008;-93
2024/03/27 00:43:44;;;;;;;10.95;2.35;;;;;;;;;;6213505;23;20335;-92
2024/03/27 00:46:09;;;;;;;7.15;2.20;;;;;;;;;;6238726;22;20005;-92
2024/03/27 00:48:35;;;;;;;10.70;2.37;;;;;;;;;;6238576;23;20005;-93
2024/03/27 00:51:00;;;;;;;12.30;2.88;;;;;;;;;;6238318;23;20317;-92
2024/03/27 00:53:26;;;;;;;9.75;2.53;;;;;;;;;;6213102;23;20030;-93
2024/03/27 00:55:58;;;;;;;6.55;2.40;;;;;;;;;;6213830;23;20064;-93
2024/03/27 00:58:23;;;;;;;;;;;;;;;;;;6238327;23;19988;-92
2024/03/27 01:00:48;;;;;;;3.35;1.95;;;;;;;;;;6212525;23;19900;-92
2024/03/27 01:03:14;;;;;;;7.97;2.42;;;;;;;;;;6238124;23;20427;-92
2024/03/27 01:05:40;;;;;;;6.47;2.20;;;;;;;;;;6238257;23;20042;-93
2024/03/27 01:08:05;;;;;;;8.18;1.95;;;;;;;;;;6214069;23;20004;-93
2024/03/27 01:10:30;;;;;;;7.20;2.40;;;;;;;;;;6237850;23;20498;-93
2024/03/27 01:12:55;;;;;;;3.43;1.90;;;;;;;;;;6238400;23;19997;-93
2024/03/27 01:15:22;;;;;;;5.67;2.67;;;;;;;;;;6214474;23;20207;-92
2024/03/27 01:17:47;;;;;;;7.78;1.70;;;;;;;;;;6213105;23;20252;-92
2024/03/27 01:20:12;;;;;;;4.30;1.33;;;;;;;;;;6214423;23;20474;-92
2024/03/27 01:22:38;;;;;;;6.28;1.70;;;;;;;;;;6213898;23;20091;-92
2024/03/27 01:25:05;;;;;;;5.88;1.50;;;;;;;;;;6212864;23;19996;-92
2024/03/27 01:27:31;;;;;;;6.75;1.75;;;;;;;;;;6213965;23;20439;-93
2024/03/27 01:29:56;;;;;;;9.93;1.80;;;;;;;;;;6214603;23;20085;-92
2024/03/27 01:32:21;;;;;;;5.07;1.60;;;;;;;;;;6214637;23;20004;-92
2024/03/27 01:34:46;;;;;;;5.45;1.33;;;;;;;;;;6214157;23;20245;-92
2024/03/27 01:37:11;;;;;;;4.77;1.27;;;;;;;;;;6237815;22;20004;-93
2024/03/27 01:39:37;;;;;;;13.73;1.73;;;;;;;;;;6214256;23;20261;-94
2024/03/27 01:42:02;;;;;;;7.47;1.27;;;;;;;;;;6214691;23;20001;-93
2024/03/27 01:44:27;;;;;;;8.30;1.58;;;;;;;;;;6238574;23;20361;-93
2024/03/27 01:46:53;;;;;;;8.65;1.40;;;;;;;;;;6237601;22;20012;-93
2024/03/27 01:49:18;;;;;;;6.45;1.15;;;;;;;;;;6214152;23;20032;-92
2024/03/27 01:51:44;;;;;;;6.72;1.13;;;;;;;;;;6213695;23;20035;-93
2024/03/27 01:54:11;;;;;;;6.68;1.42;;;;;;;;;;6237438;23;20395;-92
2024/03/27 01:56:36;;;;;;;20.77;1.38;;;;;;;;;;6237425;22;19997;-92
2024/03/27 01:59:02;;;;;;;4.20;1.40;;;;;;;;;;6214434;23;19997;-92
2024/03/27 02:01:28;;;;;;;2.92;0.90;;;;;;;;;;6214269;23;19992;-93
2024/03/27 02:03:54;;;;;;;9.30;0.98;;;;;;;;;;6238474;23;19997;-93
2024/03/27 02:06:20;;;;;;;11.85;1.40;;;;;;;;;;6237570;22;20091;-93
2024/03/27 02:08:45;;;;;;;6.45;1.27;;;;;;;;;;6237966;23;20004;-94
2024/03/27 02:11:10;;;;;;;6.38;1.05;;;;;;;;;;6238059;23;19997;-93
2024/03/27 02:13:35;;;;;;;5.22;1.38;;;;;;;;;;6240033;23;20031;-93
2024/03/27 02:16:01;;;;;;;10.60;1.35;;;;;;;;;;6216165;23;20023;-92
2024/03/27 02:18:26;;;;;;;11.93;1.42;;;;;;;;;;6214783;23;19989;-93
2024/03/27 02:20:52;;;;;;;7.50;1.38;;;;;;;;;;6215802;23;19996;-93
2024/03/27 02:23:19;;;;;;;3.28;1.13;;;;;;;;;;6216523;23;19996;-93
2024/03/27 02:25:59;;;;;;;9.60;1.65;;;;;;;;;;6214176;23;20467;-93
2024/03/27 02:28:24;;;;;;;9.13;1.25;;;;;;;;;;6239849;23;20435;-93
2024/03/27 02:30:49;;;;;;;4.47;1.55;;;;;;;;;;6239584;23;19996;-92
2024/03/27 02:33:15;;;;;;;8.98;1.23;;;;;;;;;;6237781;23;20054;-92
2024/03/27 02:35:40;;;;;;;9.55;2.83;;;;;;;;;;6237689;23;20003;-92
2024/03/27 02:38:05;;;;;;;5.60;0.90;;;;;;;;;;6216372;23;20028;-92
2024/03/27 02:40:30;;;;;;;5.15;0.70;;;;;;;;;;6215921;23;20000;-93
2024/03/27 02:42:55;;;;;;;5.28;0.70;;;;;;;;;;6215881;23;20474;-93
2024/03/27 02:45:21;;;;;;;6.05;1.23;;;;;;;;;;6239621;23;20000;-92
2024/03/27 02:47:46;;;;;;;13.38;1.75;;;;;;;;;;6215606;23;20063;-92
2024/03/27 02:50:11;;;;;;;7.60;1.30;;;;;;;;;;6238574;23;19996;-92
2024/03/27 02:52:36;;;;;;;7.32;1.05;;;;;;;;;;6213760;23;20051;-91
2024/03/27 02:55:02;;;;;;;10.23;1.10;;;;;;;;;;6215398;23;20004;-92
2024/03/27 02:57:27;;;;;;;6.75;0.90;;;;;;;;;;6213984;23;20230;-91
2024/03/27 02:59:53;;;;;;;10.82;1.02;;;;;;;;;;6213472;23;20043;-92
2024/03/27 03:02:18;;;;;;;6.40;0.73;;;;;;;;;;6215640;23;19996;-91
2024/03/27 03:04:43;;;;;;;7.05;0.90;;;;;;;;;;6215384;23;20020;-93
2024/03/27 03:07:08;;;;;;;11.30;1.35;;;;;;;;;;6212566;23;20013;-92
2024/03/27 03:09:33;;;;;;;4.10;0.95;;;;;;;;;;6239408;23;20005;-92
2024/03/27 03:11:59;;;;;;;9.10;1.20;;;;;;;;;;6239338;23;20007;-91
2024/03/27 03:14:24;;;;;;;10.57;0.97;;;;;;;;;;6215395;23;20217;-92
2024/03/27 03:16:49;;;;;;;5.97;0.90;;;;;;;;;;6213795;23;20233;-91
2024/03/27 03:19:15;;;;;;;7.93;1.10;;;;;;;;;;6239319;23;20224;-91
2024/03/27 03:21:40;;;;;;;14.88;0.95;;;;;;;;;;6214883;23;20008;-91
2024/03/27 03:24:06;;;;;;;13.98;1.23;;;;;;;;;;6214462;23;19992;-92
2024/03/27 03:26:31;;;;;;;4.07;1.15;;;;;;;;;;6214906;23;20058;-92
2024/03/27 03:28:56;;;;;;;8.70;0.82;;;;;;;;;;6215621;23;20332;-92
2024/03/27 03:31:21;;;;;;;5.57;0.67;;;;;;;;;;6215250;23;19993;-92
2024/03/27 03:33:47;;;;;;;5.43;0.77;;;;;;;;;;6215331;23;20277;-92
2024/03/27 03:36:12;;;;;;;19.60;1.80;;;;;;;;;;6215224;23;19997;-92
2024/03/27 03:38:37;;;;;;;5.47;0.67;;;;;;;;;;6215034;23;20217;-92
2024/03/27 03:41:03;;;;;;;3.90;0.80;;;;;;;;;;6215104;23;20301;-93
2024/03/27 03:43:28;;;;;;;4.25;0.80;;;;;;;;;;6239266;23;20226;-92
2024/03/27 03:45:54;;;;;;;6.72;1.42;;;;;;;;;;6238726;23;20423;-92
2024/03/27 03:48:21;;;;;;;4.20;1.08;;;;;;;;;;6238738;23;20357;-93
2024/03/27 03:50:46;;;;;;;5.32;1.00;;;;;;;;;;6238726;23;20316;-92
2024/03/27 03:53:12;;;;;;;4.17;0.77;;;;;;;;;;6215183;23;20008;-93
2024/03/27 03:55:39;;;;;;;3.65;1.73;;;;;;;;;;6238916;23;20305;-92
2024/03/27 03:58:05;;;;;;;7.00;0.80;;;;;;;;;;6238804;23;20062;-93
2024/03/27 04:00:30;;;;;;;5.18;1.02;;;;;;;;;;6238963;23;20431;-93
2024/03/27 04:02:55;;;;;;;5.00;1.15;;;;;;;;;;6238712;23;20367;-93
2024/03/27 04:05:21;;;;;;;5.07;1.08;;;;;;;;;;6238624;23;20009;-92
2024/03/27 04:07:47;;;;;;;7.83;0.70;;;;;;;;;;6238528;22;20091;-92
2024/03/27 04:10:12;;;;;;;8.73;0.82;;;;;;;;;;6238801;23;20276;-92
2024/03/27 04:12:37;;;;;;;6.15;1.40;;;;;;;;;;6238766;23;20005;-91
2024/03/27 04:15:05;;;;;;;6.73;1.50;;;;;;;;;;6238644;23;20088;-91
2024/03/27 04:17:30;;;;;;;7.18;1.20;;;;;;;;;;6213454;23;20230;-91
2024/03/27 04:19:58;;;;;;;3.90;0.77;;;;;;;;;;6214659;23;20071;-92
2024/03/27 04:22:23;;;;;;;9.75;1.02;;;;;;;;;;6214385;23;20001;-92
2024/03/27 04:24:48;;;;;;;4.72;0.70;;;;;;;;;;6213327;23;20001;-92
2024/03/27 04:27:13;;;;;;;6.33;0.93;;;;;;;;;;6214606;23;20032;-92
2024/03/27 04:29:39;;;;;;;5.37;0.70;;;;;;;;;;6214695;23;20227;-92
2024/03/27 04:32:04;;;;;;;9.65;0.88;;;;;;;;;;6238612;23;20210;-92
2024/03/27 04:34:29;;;;;;;7.65;1.38;;;;;;;;;;6237799;23;20008;-92
2024/03/27 04:36:55;;;;;;;7.70;0.98;;;;;;;;;;6212674;23;19996;-92
2024/03/27 04:39:20;;;;;;;8.07;1.52;;;;;;;;;;6238789;23;20080;-92
2024/03/27 04:41:46;;;;;;;7.72;0.98;;;;;;;;;;6238522;23;20494;-92
2024/03/27 04:44:11;;;;;;;9.65;1.63;;;;;;;;;;6238741;23;20040;-92
2024/03/27 04:46:36;;;;;;;14.48;1.73;;;;;;;;;;6213037;23;20007;-92
2024/03/27 04:49:01;;;;;;;7.73;0.90;;;;;;;;;;6214877;23;20076;-92
2024/03/27 04:51:27;;;;;;;12.38;1.45;;;;;;;;;;6214363;23;20207;-92
2024/03/27 04:53:52;;;;;;;9.35;1.05;;;;;;;;;;6214628;23;20028;-93
2024/03/27 04:56:17;;;;;;;7.67;0.93;;;;;;;;;;6214730;23;19996;-92
2024/03/27 04:58:42;;;;;;;10.77;1.00;;;;;;;;;;6214689;23;20210;-93
2024/03/27 05:01:07;;;;;;;7.97;1.20;;;;;;;;;;6214513;23;20222;-92
2024/03/27 05:03:33;;;;;;;4.57;0.93;;;;;;;;;;6214949;23;20438;-92
2024/03/27 05:05:58;;;;;;;5.87;0.90;;;;;;;;;;6213691;23;20004;-92
2024/03/27 05:08:23;;;;;;;8.27;1.02;;;;;;;;;;6214590;23;20308;-91
2024/03/27 05:10:48;;;;;;;10.87;1.20;;;;;;;;;;6214422;23;19997;-90
2024/03/27 05:13:13;;;;;;;8.60;1.15;;;;;;;;;;6214391;23;20218;-91
2024/03/27 05:15:39;;;;;;;9.95;0.95;;;;;;;;;;6214259;23;19996;-91
2024/03/27 05:18:05;;;;;;;3.90;1.00;;;;;;;;;;6214401;23;19997;-91
2024/03/27 05:20:30;;;;;;;4.70;1.35;;;;;;;;;;6214074;23;20000;-90
2024/03/27 05:22:55;;;;;;;18.95;1.77;;;;;;;;;;6212682;23;20051;-92
2024/03/27 05:25:20;;;;;;;7.80;0.90;;;;;;;;;;6238069;23;20007;-90
2024/03/27 05:27:46;;;;;;;5.13;1.43;;;;;;;;;;6237986;22;20012;-92
2024/03/27 05:30:11;;;;;;;7.57;0.93;;;;;;;;;;6238194;23;20218;-91
2024/03/27 05:32:36;;;;;;;6.50;1.20;;;;;;;;;;6214108;23;20301;-92
2024/03/27 05:35:02;;;;;;;15.32;1.08;;;;;;;;;;6212713;23;20001;-92
2024/03/27 05:37:28;;;;;;;9.10;1.25;;;;;;;;;;6237835;22;20546;-93
2024/03/27 05:39:53;;;;;;;7.93;1.50;;;;;;;;;;6238014;23;20016;-92
2024/03/27 05:42:18;;;;;;;7.20;1.30;;;;;;;;;;6212680;23;20131;-92
2024/03/27 05:44:43;;;;;;;13.30;2.10;;;;;;;;;;6214284;23;20313;-92
2024/03/27 05:47:09;;;;;;;17.37;3.07;;;;;;;;;;6213949;23;20250;-92
2024/03/27 05:49:34;;;;;;;12.20;1.27;;;;;;;;;;6237540;23;20218;-92
2024/03/27 05:51:59;;;;;;;11.95;1.63;;;;;;;;;;6214729;23;20008;-91
2024/03/27 05:54:24;;;;;;;13.77;1.37;;;;;;;;;;6214100;23;20320;-91
2024/03/27 05:56:49;;;;;;;8.07;1.00;;;;;;;;;;6214105;23;20684;-91
2024/03/27 05:59:15;;;;;;;22.15;2.78;;;;;;;;;;6237994;23;20223;-91
2024/03/27 06:01:40;;;;;;;17.80;3.55;;;;;;;;;;6238131;23;20312;-91
2024/03/27 06:04:05;;;;;;;8.57;1.50;;;;;;;;;;6212098;23;20434;-91
2024/03/27 06:06:30;;;;;;;12.73;1.20;;;;;;;;;;6237925;22;20273;-92
2024/03/27 06:08:56;;;;;;;13.00;1.50;;;;;;;;;;6214112;23;20254;-91
2024/03/27 06:11:21;;;;;;;18.60;2.50;;;;;;;;;;6236767;23;20234;-91
2024/03/27 06:13:48;;;;;;;8.98;1.48;;;;;;;;;;6236067;23;20008;-91
2024/03/27 06:16:14;;;;;;;14.77;2.13;;;;;;;;;;6211969;23;20007;-92
2024/03/27 06:18:39;;;;;;;4.43;1.50;;;;;;;;;;6237608;23;19997;-92
2024/03/27 06:21:04;;;;;;;10.45;1.25;;;;;;;;;;6237049;23;19996;-91
2024/03/27 06:23:30;;;;;;;7.80;1.20;;;;;;;;;;6212019;23;20001;-91
2024/03/27 06:25:59;;;;;;;13.98;2.10;;;;;;;;;;6212113;23;20000;-91
2024/03/27 06:28:24;;;;;;;7.50;1.50;;;;;;;;;;6236861;23;20332;-92
2024/03/27 06:30:55;;;;;;;11.10;1.70;;;;;;;;;;6236978;23;20003;-91
2024/03/27 06:33:20;;;;;;;6.43;1.40;;;;;;;;;;6237689;23;20001;-90
2024/03/27 06:35:46;;;;;;;8.68;1.20;;;;;;;;;;6211962;23;20060;-90
2024/03/27 06:38:12;;;;;;;13.65;1.50;;;;;;;;;;6213465;23;20003;-90
2024/03/27 06:40:37;;;;;;;8.27;1.20;;;;;;;;;;6214519;23;19996;-90
2024/03/27 06:43:02;;;;;;;9.53;1.13;;;;;;;;;;6237131;23;20012;-89
2024/03/27 06:45:27;;;;;;;13.10;1.60;;;;;;;;;;6213610;23;20231;-92
2024/03/27 06:47:53;;;;;;;9.85;1.30;;;;;;;;;;6211267;23;20008;-89
2024/03/27 06:50:18;;;;;;;10.70;1.25;;;;;;;;;;6236405;23;20084;-90
2024/03/27 06:52:45;;;;;;;14.10;2.33;;;;;;;;;;6212835;23;20025;-90
2024/03/27 06:55:10;;;;;;;7.72;1.50;;;;;;;;;;6213315;23;20222;-90
2024/03/27 06:57:35;;;;;;;11.70;1.27;;;;;;;;;;6213473;23;20001;-91
2024/03/27 07:00:00;;;;;;;4.57;1.17;;;;;;;;;;6214943;23;20309;-89
2024/03/27 07:02:26;;;;;;;13.30;1.52;;;;;;;;;;6215654;23;20301;-90
2024/03/27 07:04:51;;;;;;;16.97;3.53;;;;;;;;;;6214756;23;19997;-94
2024/03/27 07:07:16;;;;;;;8.85;1.10;;;;;;;;;;6238555;22;20253;-91
2024/03/27 07:09:42;;;;;;;12.68;1.65;;;;;;;;;;6215512;23;20024;-91
2024/03/27 07:12:07;;;;;;;14.23;2.00;;;;;;;;;;6215480;23;19996;-91
2024/03/27 07:14:32;;;;;;;12.73;2.67;;;;;;;;;;6238677;23;20218;-91
2024/03/27 07:16:57;;;;;;;11.87;2.17;;;;;;;;;;6213174;23;20504;-90
2024/03/27 07:19:22;;;;;;;8.43;1.10;;;;;;;;;;6209552;23;20225;-91
2024/03/27 07:21:48;;;;;;;8.00;1.40;;;;;;;;;;6230566;23;20238;-91
2024/03/27 07:24:13;;;;;;;7.63;1.30;;;;;;;;;;6213127;23;20000;-92
2024/03/27 07:26:38;;;;;;;11.65;1.42;;;;;;;;;;6213225;23;20246;-92
2024/03/27 07:29:04;;;;;;;10.93;1.92;;;;;;;;;;6213245;23;20158;-91
2024/03/27 07:31:29;;;;;;;12.65;1.38;;;;;;;;;;6211888;23;20076;-91
2024/03/27 07:33:54;;;;;;;16.40;2.43;;;;;;;;;;6213538;23;19997;-90
2024/03/27 07:36:20;;;;;;;13.45;1.70;;;;;;;;;;6210324;23;20317;-90
2024/03/27 07:38:45;;;;;;;8.70;1.17;;;;;;;;;;6211378;23;20024;-91
2024/03/27 07:41:10;;;;;;;7.03;1.38;;;;;;;;;;6211765;23;20226;-91
2024/03/27 07:43:35;;;;;;;8.57;1.08;;;;;;;;;;6237126;23;20008;-92
2024/03/27 07:46:07;;;;;;;8.25;1.42;;;;;;;;;;6236542;23;20008;-89
2024/03/27 07:48:33;;;;;;;9.30;1.50;;;;;;;;;;6235306;23;20434;-91
2024/03/27 07:50:58;;;;;;;12.32;1.30;;;;;;;;;;6212297;23;20027;-91
2024/03/27 07:53:23;;;;;;;13.90;1.75;;;;;;;;;;6213037;23;20047;-91
2024/03/27 07:55:55;;;;;;;9.80;1.30;;;;;;;;;;6212970;23;19997;-89
2024/03/27 07:58:20;;;;;;;6.68;1.70;;;;;;;;;;6236676;23;20787;-92
2024/03/27 08:00:46;;;;;;;14.95;2.58;;;;;;;;;;6211219;23;19993;-91
2024/03/27 08:03:11;;;;;;;12.97;1.83;;;;;;;;;;6212708;23;20004;-91
2024/03/27 08:05:36;;;;;;;15.18;2.45;;;;;;;;;;6211657;23;20215;-92
2024/03/27 08:08:01;;;;;;;6.33;1.50;;;;;;;;;;6236742;22;20017;-92
2024/03/27 08:10:29;;;;;;;7.25;1.15;;;;;;;;;;6236322;23;20219;-92
2024/03/27 08:12:54;;;;;;;12.57;1.55;;;;;;;;;;6236444;23;20008;-93
2024/03/27 08:15:20;;;;;;;10.38;2.03;;;;;;;;;;6236414;23;20007;-90
2024/03/27 08:17:45;;;;;;;17.30;2.13;;;;;;;;;;6211153;23;20000;-90
2024/03/27 08:20:10;;;;;;;9.33;1.70;;;;;;;;;;6211819;23;20028;-91
2024/03/27 08:22:36;;;;;;;9.13;1.45;;;;;;;;;;6213038;23;20258;-91
2024/03/27 08:25:01;;;;;;;12.43;2.10;;;;;;;;;;6213045;23;19992;-92
2024/03/27 08:27:26;;;;;;;16.83;2.57;;;;;;;;;;6211794;23;20250;-91
2024/03/27 08:29:51;;;;;;;19.07;1.33;;;;;;;;;;6208670;23;20219;-90
2024/03/27 08:32:16;;;;;;;4.70;1.27;;;;;;;;;;6208290;23;20661;-90
2024/03/27 08:34:42;;;;;;;0.70;0.30;;;;;;;;;;6206896;23;20218;-91
2024/03/27 08:37:07;;;;;;;1.92;0.22;;;;;;;;;;6212700;23;20273;-91
2024/03/27 08:39:32;;;;;;;1.17;0.20;;;;;;;;;;6213696;23;19997;-93
2024/03/27 08:41:57;;;;;;;2.00;0.20;;;;;;;;;;6214308;23;20524;-90
2024/03/27 08:44:22;;;;;;;1.25;0.20;;;;;;;;;;6237224;23;20309;-92
2024/03/27 08:46:48;;;;;;;0.35;0.20;;;;;;;;;;6237713;22;20040;-90
2024/03/27 08:49:14;;;;;;;1.45;0.10;;;;;;;;;;6211704;23;20003;-89
2024/03/27 08:51:39;;;;;;;3.03;0.20;;;;;;;;;;6214050;23;20028;-89
2024/03/27 08:54:05;;;;;;;1.20;0.38;;;;;;;;;;6214021;23;20003;-90
2024/03/27 08:56:30;;;;;;;0.93;0.30;;;;;;;;;;6237245;22;20079;-89
2024/03/27 08:58:55;;;;;;;1.00;0.10;;;;;;;;;;6213665;23;20021;-90
2024/03/27 09:01:20;;;;;;;1.70;0.20;;;;;;;;;;6237645;23;20014;-90
2024/03/27 09:03:46;;;;;;;0.28;0.22;;;;;;;;;;6213862;23;20221;-88
2024/03/27 09:06:12;;;;;;;0.32;0.10;;;;;;;;;;6212453;23;19997;-88
2024/03/27 09:08:37;;;;;;;2.13;0.28;;;;;;;;;;6214225;23;20005;-89
2024/03/27 09:11:02;;;;;;;1.42;0.20;;;;;;;;;;6213835;23;20004;-89
2024/03/27 09:13:28;;;;;;;1.50;0.25;;;;;;;;;;6213699;23;20434;-88
2024/03/27 09:15:58;;;;;;;1.17;0.20;;;;;;;;;;6213294;23;19989;-90
2024/03/27 09:18:23;;;;;;;0.82;0.25;;;;;;;;;;6214037;23;20001;-89
2024/03/27 09:20:52;;;;;;;0.40;0.20;;;;;;;;;;6213158;23;19997;-89
2024/03/27 09:23:17;;;;;;;2.72;0.40;;;;;;;;;;6213848;23;20230;-90
2024/03/27 09:25:42;;;;;;;0.22;0.10;;;;;;;;;;6213748;23;19997;-89
2024/03/27 09:28:08;;;;;;;1.30;0.40;;;;;;;;;;6211712;23;20399;-90
2024/03/27 09:30:34;;;;;;;0.73;0.30;;;;;;;;;;6213791;23;20000;-89
2024/03/27 09:32:59;;;;;;;1.08;0.43;;;;;;;;;;6211176;23;20032;-89
2024/03/27 09:35:24;;;;;;;2.60;0.73;;;;;;;;;;6212564;23;20008;-89
2024/03/27 09:37:50;;;;;;;2.97;0.37;;;;;;;;;;6212620;23;20233;-90
2024/03/27 09:40:15;;;;;;;3.97;0.50;;;;;;;;;;6213656;23;20225;-89
2024/03/27 09:42:41;;;;;;;0.47;0.20;;;;;;;;;;6213378;23;20067;-88
2024/03/27 09:45:06;;;;;;;1.65;0.50;;;;;;;;;;6213231;23;20482;-89
2024/03/27 09:47:32;;;;;;;2.17;0.50;;;;;;;;;;6213684;23;20016;-89
2024/03/27 09:49:58;;;;;;;0.63;0.30;;;;;;;;;;6212668;23;19989;-90
2024/03/27 09:52:24;;;;;;;2.08;0.50;;;;;;;;;;6212745;23;19997;-90
2024/03/27 09:54:49;;;;;;;2.22;0.40;;;;;;;;;;6213566;23;20000;-89
2024/03/27 09:57:14;;;;;;;1.58;0.50;;;;;;;;;;6213821;23;20001;-90
2024/03/27 09:59:39;;;;;;;1.23;0.43;;;;;;;;;;6213978;23;20451;-89
2024/03/27 10:02:09;;;;;;;4.70;0.60;;;;;;;;;;6213552;23;20254;-89
2024/03/27 10:04:34;;;;;;;2.33;0.60;;;;;;;;;;6211075;23;20302;-90
2024/03/27 10:07:03;;;;;;;2.75;0.50;;;;;;;;;;6213243;23;20028;-90
2024/03/27 10:09:28;;;;;;;2.75;0.52;;;;;;;;;;6213488;23;20062;-89
2024/03/27 10:11:53;;;;;;;4.10;0.90;;;;;;;;;;6213907;23;20227;-89
2024/03/27 10:14:19;;;;;;;1.63;0.43;;;;;;;;;;6213670;23;20289;-89
2024/03/27 10:16:44;;;;;;;2.90;0.40;;;;;;;;;;6213551;23;20616;-90
2024/03/27 10:19:09;;;;;;;1.42;0.52;;;;;;;;;;6235574;23;20005;-89
2024/03/27 10:21:34;;;;;;;1.90;0.47;;;;;;;;;;6213052;23;20335;-87
2024/03/27 10:24:00;;;;;;;4.93;1.08;;;;;;;;;;6212825;23;20214;-87
2024/03/27 10:26:28;;;;;;;2.17;0.55;;;;;;;;;;6213094;23;20005;-87
2024/03/27 10:28:55;;;;;;;2.80;0.63;;;;;;;;;;6213722;23;20004;-87
2024/03/27 10:31:20;;;;;;;3.13;0.57;;;;;;;;;;6213998;23;19989;-88
2024/03/27 10:33:46;;;;;;;2.58;0.80;;;;;;;;;;6214519;23;20011;-87
2024/03/27 10:36:11;;;;;;;0.90;0.50;;;;;;;;;;6215331;23;20022;-88
2024/03/27 10:38:39;;;;;;;6.07;0.80;;;;;;;;;;6214561;23;20533;-89
2024/03/27 10:41:05;;;;;;;4.70;0.63;;;;;;;;;;6213728;23;20007;-90
2024/03/27 10:43:42;;;;;;;3.15;0.77;;;;;;;;;;6214738;23;20060;-90
2024/03/27 10:46:09;;;;;;;1.80;0.70;;;;;;;;;;6214979;23;19997;-88
2024/03/27 10:48:36;;;;;;;2.10;0.65;;;;;;;;;;6214647;23;20070;-90
2024/03/27 10:51:02;;;;;;;4.00;0.80;;;;;;;;;;6215274;23;19996;-90
2024/03/27 10:53:28;;;;;;;2.63;0.35;;;;;;;;;;6215549;23;20429;-90
2024/03/27 10:55:54;;;;;;;4.05;0.70;;;;;;;;;;6215270;23;20359;-88
2024/03/27 10:58:19;;;;;;;2.05;0.47;;;;;;;;;;6214895;23;20068;-89
2024/03/27 11:00:45;;;;;;;1.55;0.60;;;;;;;;;;6214215;23;19996;-89
2024/03/27 11:03:10;;;;;;;4.57;0.80;;;;;;;;;;6213622;23;19992;-90
2024/03/27 11:05:35;;;;;;;2.87;0.60;;;;;;;;;;6214792;23;20118;-89
2024/03/27 11:08:03;;;;;;;2.13;0.60;;;;;;;;;;6215153;23;20776;-90
2024/03/27 11:10:28;;;;;;;2.15;0.82;;;;;;;;;;6238124;23;20486;-90
2024/03/27 11:12:57;;;;;;;3.47;0.50;;;;;;;;;;6213834;23;20000;-90
2024/03/27 11:15:22;;;;;;;6.97;1.05;;;;;;;;;;6213907;23;20420;-90
2024/03/27 11:17:53;;;;;;;4.43;0.43;;;;;;;;;;6214810;23;20107;-90
2024/03/27 11:20:21;;;;;;;11.95;2.15;;;;;;;;;;6212346;23;20005;-92
2024/03/27 11:22:46;;;;;;;4.10;0.40;;;;;;;;;;6214947;23;20008;-91
2024/03/27 11:25:11;;;;;;;3.90;0.50;;;;;;;;;;6215444;23;19996;-92
2024/03/27 11:27:37;;;;;;;3.88;0.50;;;;;;;;;;6238386;22;20032;-91
2024/03/27 11:30:03;;;;;;;2.22;0.55;;;;;;;;;;6213607;23;20074;-89
2024/03/27 11:32:35;;;;;;;3.55;0.63;;;;;;;;;;6213278;23;20000;-90
2024/03/27 11:35:01;;;;;;;8.35;1.00;;;;;;;;;;6213910;23;20487;-89
2024/03/27 11:37:27;;;;;;;6.38;0.98;;;;;;;;;;6213099;23;20000;-90
2024/03/27 11:39:52;;;;;;;3.85;0.65;;;;;;;;;;6215005;23;20111;-89
2024/03/27 11:42:17;;;;;;;9.50;0.90;;;;;;;;;;6214775;23;19996;-89
2024/03/27 11:44:42;;;;;;;4.17;0.90;;;;;;;;;;6214572;23;20222;-90
2024/03/27 11:47:08;;;;;;;4.38;0.85;;;;;;;;;;6212041;23;20242;-91
2024/03/27 11:49:34;;;;;;;5.50;0.60;;;;;;;;;;6212184;23;20000;-91
2024/03/27 11:51:59;;;;;;;3.03;1.37;;;;;;;;;;6212407;23;20358;-91
2024/03/27 11:54:26;;;;;;;4.25;1.88;;;;;;;;;;6235941;23;20680;-91
2024/03/27 11:56:52;;;;;;;3.90;0.60;;;;;;;;;;6212824;23;20016;-90
2024/03/27 11:59:17;;;;;;;4.65;0.65;;;;;;;;;;6212953;23;20420;-91
2024/03/27 12:01:43;;;;;;;9.10;0.88;;;;;;;;;;6212860;23;20330;-90
2024/03/27 12:04:09;;;;;;;3.65;0.70;;;;;;;;;;6235481;23;19997;-90
2024/03/27 12:06:34;;;;;;;6.43;0.77;;;;;;;;;;6212271;23;20026;-90
2024/03/27 12:09:00;;;;;;;7.75;0.75;;;;;;;;;;6212988;23;20420;-90
2024/03/27 12:11:25;;;;;;;7.55;0.88;;;;;;;;;;6212827;23;20036;-89
2024/03/27 12:13:50;;;;;;;12.73;1.80;;;;;;;;;;6212630;23;20003;-90
2024/03/27 12:16:16;;;;;;;7.82;0.88;;;;;;;;;;6210155;23;20492;-89
2024/03/27 12:18:43;;;;;;;4.90;0.73;;;;;;;;;;6211943;23;20063;-91
2024/03/27 12:21:12;;;;;;;5.60;1.05;;;;;;;;;;6236431;23;20514;-92
2024/03/27 12:23:38;;;;;;;3.60;0.60;;;;;;;;;;6236119;23;20043;-90
2024/03/27 12:26:03;;;;;;;4.03;0.80;;;;;;;;;;6212734;23;20008;-91
2024/03/27 12:28:29;;;;;;;5.25;1.00;;;;;;;;;;6236146;23;20009;-90
2024/03/27 12:30:56;;;;;;;5.78;0.90;;;;;;;;;;6236175;23;20001;-91
2024/03/27 12:33:21;;;;;;;6.05;0.80;;;;;;;;;;6211953;23;19996;-91
2024/03/27 12:35:46;;;;;;;7.67;0.93;;;;;;;;;;6237869;23;20035;-90
2024/03/27 12:38:12;;;;;;;4.70;0.63;;;;;;;;;;6214585;23;20214;-89
2024/03/27 12:40:37;;;;;;;3.85;0.90;;;;;;;;;;6214699;23;20719;-90
2024/03/27 12:43:02;;;;;;;9.25;1.10;;;;;;;;;;6212969;23;19996;-89
2024/03/27 12:45:28;;;;;;;4.78;0.90;;;;;;;;;;6213594;23;20544;-89
2024/03/27 12:47:53;;;;;;;7.00;1.20;;;;;;;;;;6213429;23;20415;-90
2024/03/27 12:50:18;;;;;;;5.57;1.10;;;;;;;;;;6214482;23;20744;-89
2024/03/27 12:52:43;;;;;;;5.50;0.83;;;;;;;;;;6214362;23;20682;-89
2024/03/27 12:55:08;;;;;;;7.07;1.27;;;;;;;;;;6212459;23;20250;-90
2024/03/27 12:57:34;;;;;;;8.18;1.80;;;;;;;;;;6237268;22;20005;-91
2024/03/27 12:59:59;;;;;;;4.53;0.80;;;;;;;;;;6214081;23;20423;-94
2024/03/27 13:02:24;;;;;;;7.60;1.55;;;;;;;;;;6213774;23;20354;-92
2024/03/27 13:04:49;;;;;;;4.90;0.90;;;;;;;;;;6239066;23;20001;-94
2024/03/27 13:07:14;;;;;;;4.43;1.13;;;;;;;;;;6237939;22;20624;-93
2024/03/27 13:09:40;;;;;;;5.85;1.52;;;;;;;;;;6238391;23;20681;-92
2024/03/27 13:12:05;;;;;;;4.35;0.52;;;;;;;;;;6238809;23;20010;-92
2024/03/27 13:14:30;;;;;;;3.88;0.88;;;;;;;;;;6212603;23;20004;-92
2024/03/27 13:16:57;;;;;;;7.78;1.27;;;;;;;;;;6213133;23;19997;-94
2024/03/27 13:19:22;;;;;;;7.35;0.90;;;;;;;;;;6238079;23;19996;-92
2024/03/27 13:21:48;;;;;;;4.85;0.77;;;;;;;;;;6241894;23;20064;-92
2024/03/27 13:24:13;;;;;;;5.90;1.20;;;;;;;;;;6238478;23;19999;-93
2024/03/27 13:26:38;;;;;;;2.20;0.55;;;;;;;;;;6213755;23;20091;-96
2024/03/27 13:29:04;;;;;;;2.58;0.50;;;;;;;;;;6237992;23;20004;-92
2024/03/27 13:31:29;;;;;;;3.85;0.50;;;;;;;;;;6212866;23;20000;-94
2024/03/27 13:33:54;;;;;;;4.65;0.50;;;;;;;;;;6237301;23;20087;-92
2024/03/27 13:36:20;;;;;;;1.75;0.55;;;;;;;;;;6213901;23;20015;-90
2024/03/27 13:38:45;;;;;;;3.77;0.73;;;;;;;;;;6214385;23;20363;-92
2024/03/27 13:41:10;;;;;;;8.80;1.15;;;;;;;;;;6237027;23;20534;-92
2024/03/27 13:43:35;;;;;;;4.47;0.50;;;;;;;;;;6213047;23;20003;-95
2024/03/27 13:46:01;;;;;;;3.67;0.68;;;;;;;;;;6236800;23;20249;-90
2024/03/27 13:48:26;;;;;;;5.50;0.93;;;;;;;;;;6213172;23;20005;-88
2024/03/27 13:50:51;;;;;;;9.05;1.10;;;;;;;;;;6213491;23;19993;-89
2024/03/27 13:53:17;;;;;;;9.10;1.00;;;;;;;;;;6214052;23;20419;-91
2024/03/27 13:55:42;;;;;;;5.00;0.80;;;;;;;;;;6237475;23;20229;-91
2024/03/27 13:58:07;;;;;;;3.58;0.55;;;;;;;;;;6215435;23;20423;-89
2024/03/27 14:00:32;;;;;;;8.82;1.58;;;;;;;;;;6214412;23;20032;-91
2024/03/27 14:02:57;;;;;;;6.35;0.98;;;;;;;;;;6211688;23;20046;-90
2024/03/27 14:05:23;;;;;;;10.03;0.90;;;;;;;;;;6236513;23;20000;-89
2024/03/27 14:07:48;;;;;;;6.33;0.77;;;;;;;;;;6214147;23;20341;-90
2024/03/27 14:10:13;;;;;;;8.73;0.93;;;;;;;;;;6216187;23;20257;-90
2024/03/27 14:12:39;;;;;;;10.47;1.80;;;;;;;;;;6215860;23;20300;-90
2024/03/27 14:15:10;;;;;;;4.63;0.90;;;;;;;;;;6215649;23;20222;-91
2024/03/27 14:17:36;;;;;;;9.40;1.67;;;;;;;;;;6215059;23;20004;-92
2024/03/27 14:20:01;;;;;;;7.20;1.38;;;;;;;;;;6216532;23;19993;-91
2024/03/27 14:22:28;;;;;;;8.30;1.43;;;;;;;;;;6213652;23;20500;-91
2024/03/27 14:24:53;;;;;;;13.48;1.77;;;;;;;;;;6239251;23;20279;-90
2024/03/27 14:27:18;;;;;;;3.95;0.95;;;;;;;;;;6214962;23;20029;-91
2024/03/27 14:29:43;;;;;;;6.27;1.40;;;;;;;;;;6239632;23;20003;-90